Marianne Danica — OWWO2 — position and weather

sailwx.info

Track history (hours):
 
Tides and Currents Weather Stations Pressure Air Temp Water Temp Dewpoint Dewpoint Depression Visibility Wind Speed Wind Dir Waves Ship Positions

Marianne Danica

Last reported at 2016-May-27 08:31 UTC. Time now 2016-May-27 16:12 UTC.
Position N 54°18' E 009°40'.

Length 71 m; draft 3.4 m.

Type: Cargo ship. MMSI: 219544000.

Date/timePositionNaut miles runAvg speedWind from/ knotsBaromVisibWave heightAir tempDewpointWater temp
2016-May-27 08:31N 54°18' E 009°40'1 1.5
2016-May-27 07:33N 54°18' E 009°43'7 7.0
2016-May-27 06:33N 54°21' E 009°53'6 6.3
2016-May-27 05:34N 54°22' E 010°04'3 2.6
2016-May-27 04:33N 54°22' E 010°08'6 5.7
2016-May-27 03:34N 54°27' E 010°14'10 9.9
2016-May-27 02:33N 54°33' E 010°28'1010.4
2016-May-27 01:33N 54°35' E 010°45'1211.5
2016-May-27 00:33N 54°36' E 011°05'1211.8
2016-May-26 23:33N 54°32' E 011°24'1212.1
2016-May-26 22:33N 54°28' E 011°44'1212.0
2016-May-26 21:33N 54°27' E 012°04'1110.4
2016-May-26 20:32N 54°36' E 012°14'1111.6
2016-May-26 19:33N 54°43' E 012°30'1111.5
2016-May-26 18:33N 54°47' E 012°48'1111.4
2016-May-26 17:33N 54°47' E 013°08'1311.5
2016-May-26 16:28N 54°46' E 013°29'1311.1
2016-May-26 15:18N 54°43' E 013°51'811.1
2016-May-26 14:33N 54°41' E 014°05'1211.4
2016-May-26 13:32N 54°38' E 014°24'1111.3
2016-May-26 12:33N 54°40' E 014°43'10910.8
2016-May-26 02:25N 54°57' E 017°51'11 9.9
2016-May-26 01:19N 54°58' E 018°10'7 9.8
2016-May-26 00:33N 54°58' E 018°23'9 8.6
2016-May-25 23:34N 54°56' E 018°37'8 8.5
2016-May-25 22:33N 54°50' E 018°48'9 8.5
2016-May-25 21:34N 54°46' E 019°00'8 7.7
2016-May-25 20:34N 54°38' E 018°57'8 8.2
2016-May-25 19:34N 54°32' E 018°48'8 8.3
2016-May-25 18:34N 54°32' E 018°34'1 1.4
2016-May-25 17:32N 54°32' E 018°31'0 0.0
2016-May-25 16:32N 54°32' E 018°31'0 0.0
2016-May-25 15:32N 54°32' E 018°31'0 0.0
2016-May-25 14:32N 54°32' E 018°31'0 0.0
2016-May-25 13:32N 54°32' E 018°31'0 0.0
2016-May-24 18:15N 54°32' E 018°31'0 0.3
2016-May-24 17:33N 54°32' E 018°31'0 0.0
2016-May-24 16:33N 54°32' E 018°31'  
Track history (hours):
 
Tides and Currents Weather Stations Pressure Air Temp Water Temp Dewpoint Dewpoint Depression Visibility Wind Speed Wind Dir Waves Ship Positions

Marianne Danica

Last reported at 2016-May-27 08:31 UTC. Time now 2016-May-27 16:12 UTC.
Position N 54°18' E 009°40'.

Length 71 m; draft 3.4 m.

Type: Cargo ship. MMSI: 219544000.

Date/timePositionNaut miles runAvg speedWind from/ knotsBaromVisibWave heightAir tempDewpointWater temp
2016-May-27 08:31N 54°18' E 009°40'1 1.5
2016-May-27 07:33N 54°18' E 009°43'7 7.0
2016-May-27 06:33N 54°21' E 009°53'6 6.3
2016-May-27 05:34N 54°22' E 010°04'3 2.6
2016-May-27 04:33N 54°22' E 010°08'6 5.7
2016-May-27 03:34N 54°27' E 010°14'10 9.9
2016-May-27 02:33N 54°33' E 010°28'1010.4
2016-May-27 01:33N 54°35' E 010°45'1211.5
2016-May-27 00:33N 54°36' E 011°05'1211.8
2016-May-26 23:33N 54°32' E 011°24'1212.1
2016-May-26 22:33N 54°28' E 011°44'1212.0
2016-May-26 21:33N 54°27' E 012°04'1110.4
2016-May-26 20:32N 54°36' E 012°14'1111.6
2016-May-26 19:33N 54°43' E 012°30'1111.5
2016-May-26 18:33N 54°47' E 012°48'1111.4
2016-May-26 17:33N 54°47' E 013°08'1311.5
2016-May-26 16:28N 54°46' E 013°29'1311.1
2016-May-26 15:18N 54°43' E 013°51'811.1
2016-May-26 14:33N 54°41' E 014°05'1211.4
2016-May-26 13:32N 54°38' E 014°24'1111.3
2016-May-26 12:33N 54°40' E 014°43'10910.8
2016-May-26 02:25N 54°57' E 017°51'11 9.9
2016-May-26 01:19N 54°58' E 018°10'7 9.8
2016-May-26 00:33N 54°58' E 018°23'9 8.6
2016-May-25 23:34N 54°56' E 018°37'8 8.5
2016-May-25 22:33N 54°50' E 018°48'9 8.5
2016-May-25 21:34N 54°46' E 019°00'8 7.7
2016-May-25 20:34N 54°38' E 018°57'8 8.2
2016-May-25 19:34N 54°32' E 018°48'8 8.3
2016-May-25 18:34N 54°32' E 018°34'1 1.4
2016-May-25 17:32N 54°32' E 018°31'0 0.0
2016-May-25 16:32N 54°32' E 018°31'0 0.0
2016-May-25 15:32N 54°32' E 018°31'0 0.0
2016-May-25 14:32N 54°32' E 018°31'0 0.0
2016-May-25 13:32N 54°32' E 018°31'0 0.0
2016-May-24 18:15N 54°32' E 018°31'0 0.3
2016-May-24 17:33N 54°32' E 018°31'0 0.0
2016-May-24 16:33N 54°32' E 018°31'  

Dump ship's entire track history